Time;durP1;ratioP1;P1;durP2;ratioP2;P2;SDS_P1;SDS_P2;PMS_P1;PMS_P2;Temp;Humidity;BMP_temperature;BMP_pressure;BME280_temperature;BME280_humidity;BME280_pressure;Samples;Min_cycle;Max_cycle;Signal;HPM_P1;HPM_P2
2020/12/04 05:55:33;;;;;;;5.57;3.55;;;;;;;;;;5037659;27;21807;-82
2020/12/04 05:58:00;;;;;;;6.32;3.65;;;;;;;;;;5059889;28;20059;-82
2020/12/04 06:00:26;;;;;;;6.30;3.78;;;;;;;;;;5026505;23;20047;-77
2020/12/04 06:02:59;;;;;;;6.70;2.75;;;;;;;;;;4979926;28;20516;-76
2020/12/04 06:05:28;;;;;;;5.20;3.08;;;;;;;;;;4994625;28;20022;-77
2020/12/04 06:08:00;;;;;;;4.72;2.38;;;;;;;;;;4961086;28;20077;-77
2020/12/04 06:10:27;;;;;;;6.55;3.10;;;;;;;;;;4980933;28;20427;-77
2020/12/04 06:12:54;;;;;;;4.78;2.35;;;;;;;;;;4976002;28;20031;-77
2020/12/04 06:15:24;;;;;;;4.63;3.10;;;;;;;;;;5033538;28;20397;-77
2020/12/04 06:17:51;;;;;;;6.07;3.60;;;;;;;;;;4974533;28;20039;-77
2020/12/04 06:20:21;;;;;;;5.85;3.78;;;;;;;;;;4972597;28;20042;-80
2020/12/04 06:23:06;;;;;;;5.90;3.22;;;;;;;;;;4965877;28;20026;-77
2020/12/04 06:25:51;;;;;;;7.30;3.75;;;;;;;;;;4973798;28;20023;-76
2020/12/04 06:28:18;;;;;;;7.93;4.50;;;;;;;;;;4975520;28;20077;-78
2020/12/04 06:31:03;;;;;;;7.38;3.42;;;;;;;;;;4976976;28;20036;-78
2020/12/04 06:33:30;;;;;;;5.22;2.70;;;;;;;;;;4964861;28;20042;-78
2020/12/04 06:35:56;;;;;;;6.15;3.58;;;;;;;;;;4964703;28;20362;-77
2020/12/04 06:40:40;;;;;;;4.85;2.85;;;;;;;;;;5056873;28;20350;-79
2020/12/04 06:43:26;;;;;;;5.13;3.13;;;;;;;;;;5064511;28;20050;-81
2020/12/04 06:45:52;;;;;;;6.03;2.72;;;;;;;;;;5055296;28;20029;-81
2020/12/04 06:48:19;;;;;;;4.45;2.17;;;;;;;;;;5056902;28;20028;-80
2020/12/04 06:50:46;;;;;;;4.18;2.30;;;;;;;;;;5063140;28;20442;-81
2020/12/04 06:53:13;;;;;;;4.57;2.60;;;;;;;;;;5052201;28;20029;-80
2020/12/04 06:55:39;;;;;;;5.07;2.35;;;;;;;;;;5063834;28;20021;-79
2020/12/04 07:00:23;;;;;;;5.95;3.28;;;;;;;;;;5063431;27;20431;-80
2020/12/04 07:05:07;;;;;;;21.92;15.15;;;;;;;;;;5068857;28;20361;-79
2020/12/04 07:07:33;;;;;;;13.77;9.10;;;;;;;;;;5062969;28;20103;-79
2020/12/04 07:10:01;;;;;;;9.95;7.57;;;;;;;;;;5065298;28;20060;-78
2020/12/04 07:12:28;;;;;;;8.88;7.35;;;;;;;;;;5057369;28;20432;-79
2020/12/04 07:14:54;;;;;;;8.80;7.15;;;;;;;;;;5055198;28;20132;-78
2020/12/04 07:17:21;;;;;;;7.18;3.97;;;;;;;;;;5060660;28;20029;-79
2020/12/04 07:19:48;;;;;;;6.90;3.40;;;;;;;;;;5051380;28;20022;-79
2020/12/04 07:22:17;;;;;;;16.75;9.48;;;;;;;;;;5054230;28;20064;-79
2020/12/04 07:24:44;;;;;;;12.48;5.85;;;;;;;;;;5053715;28;20028;-78
2020/12/04 07:27:13;;;;;;;7.80;4.50;;;;;;;;;;5062207;28;20101;-79
2020/12/04 07:29:39;;;;;;;9.27;6.20;;;;;;;;;;5064122;28;20017;-78
2020/12/04 07:32:05;;;;;;;9.95;7.90;;;;;;;;;;5061448;28;20025;-78
2020/12/04 07:34:36;;;;;;;8.27;4.72;;;;;;;;;;5064836;28;20029;-79
2020/12/04 07:37:03;;;;;;;9.00;7.22;;;;;;;;;;5061442;28;20028;-78
2020/12/04 07:39:33;;;;;;;13.82;7.40;;;;;;;;;;5063856;28;20029;-79
2020/12/04 07:42:00;;;;;;;6.05;4.20;;;;;;;;;;5065141;28;20119;-79
2020/12/04 07:44:27;;;;;;;5.97;4.55;;;;;;;;;;5061974;28;20095;-80
2020/12/04 07:46:58;;;;;;;5.70;3.40;;;;;;;;;;5065223;28;20029;-79
2020/12/04 07:49:24;;;;;;;6.47;4.40;;;;;;;;;;5054169;28;20028;-80
2020/12/04 07:51:51;;;;;;;7.45;4.78;;;;;;;;;;5059003;28;20021;-81
2020/12/04 07:54:21;;;;;;;8.60;5.95;;;;;;;;;;5054301;28;20493;-80
2020/12/04 07:56:50;;;;;;;13.20;6.72;;;;;;;;;;5066790;28;20079;-81
2020/12/04 07:59:20;;;;;;;12.52;5.95;;;;;;;;;;5056208;28;20025;-79
2020/12/04 08:01:46;;;;;;;7.55;3.60;;;;;;;;;;5062932;28;20027;-79
2020/12/04 08:04:17;;;;;;;4.38;2.67;;;;;;;;;;5058721;28;20108;-79
2020/12/04 08:06:43;;;;;;;5.60;2.80;;;;;;;;;;5053771;28;20028;-80
2020/12/04 08:09:19;;;;;;;11.75;7.95;;;;;;;;;;5064701;28;20024;-80
2020/12/04 08:11:48;;;;;;;19.80;14.07;;;;;;;;;;5061169;28;20021;-80
2020/12/04 08:14:15;;;;;;;14.45;9.10;;;;;;;;;;5065496;28;20024;-79
2020/12/04 08:16:42;;;;;;;14.15;8.90;;;;;;;;;;5041368;28;20477;-80
2020/12/04 08:19:12;;;;;;;17.92;12.40;;;;;;;;;;5052195;28;20076;-80
2020/12/04 08:21:57;;;;;;;13.27;10.40;;;;;;;;;;5051518;28;20025;-80
2020/12/04 08:24:24;;;;;;;12.02;7.93;;;;;;;;;;5050043;28;20029;-80
2020/12/04 08:27:19;;;;;;;12.05;7.93;;;;;;;;;;5052061;28;20021;-80
2020/12/04 08:30:01;;;;;;;9.80;7.82;;;;;;;;;;5042739;28;20053;-80
2020/12/04 08:34:45;;;;;;;4.68;3.75;;;;;;;;;;5119802;27;20431;-82
2020/12/04 08:37:12;;;;;;;5.43;4.03;;;;;;;;;;5114593;28;20023;-80
2020/12/04 08:39:38;;;;;;;7.13;2.70;;;;;;;;;;5119501;28;20031;-80
2020/12/04 08:42:34;;;;;;;5.57;2.17;;;;;;;;;;5117923;28;20024;-81
2020/12/04 08:45:09;;;;;;;3.95;2.72;;;;;;;;;;5117365;28;20039;-82
2020/12/04 08:47:37;;;;;;;7.95;4.47;;;;;;;;;;5115413;28;20037;-81
2020/12/04 08:52:34;;;;;;;6.35;3.05;;;;;;;;;;5098468;27;20397;-81
2020/12/04 08:55:04;;;;;;;4.55;2.10;;;;;;;;;;5099714;28;20482;-81
2020/12/04 08:57:30;;;;;;;5.72;2.63;;;;;;;;;;5101769;28;20024;-81
2020/12/04 08:59:56;;;;;;;3.72;1.80;;;;;;;;;;5098264;28;20022;-81
2020/12/04 09:02:22;;;;;;;2.70;1.30;;;;;;;;;;5103408;28;20048;-81
2020/12/04 09:04:48;;;;;;;3.10;1.67;;;;;;;;;;5093463;28;20048;-81
2020/12/04 09:07:14;;;;;;;3.13;1.70;;;;;;;;;;5094431;28;20077;-81
2020/12/04 09:09:40;;;;;;;3.78;1.80;;;;;;;;;;5100381;28;20028;-81
2020/12/04 09:12:06;;;;;;;4.28;2.20;;;;;;;;;;5104241;28;20027;-81
2020/12/04 09:14:32;;;;;;;4.43;1.85;;;;;;;;;;5101017;28;20348;-81
2020/12/04 09:16:58;;;;;;;3.58;1.75;;;;;;;;;;5098999;28;20020;-80
2020/12/04 09:19:24;;;;;;;5.22;1.77;;;;;;;;;;5088048;28;20508;-80
2020/12/04 09:24:08;;;;;;;5.85;1.90;;;;;;;;;;5100481;27;20377;-80
2020/12/04 09:26:35;;;;;;;3.53;1.50;;;;;;;;;;5108490;28;20088;-82
2020/12/04 09:29:01;;;;;;;3.50;1.70;;;;;;;;;;5100266;28;20028;-81
2020/12/04 09:31:27;;;;;;;3.13;1.67;;;;;;;;;;5101882;28;20039;-82
2020/12/04 09:33:53;;;;;;;2.72;1.50;;;;;;;;;;5102596;28;20020;-81
2020/12/04 09:36:19;;;;;;;3.05;1.55;;;;;;;;;;5097799;28;20463;-81
2020/12/04 09:41:03;;;;;;;4.50;2.10;;;;;;;;;;5102106;27;20399;-82
2020/12/04 09:43:29;;;;;;;5.78;2.30;;;;;;;;;;5109475;28;20434;-83
2020/12/04 09:45:56;;;;;;;14.50;5.35;;;;;;;;;;5100319;28;20079;-81
2020/12/04 09:48:22;;;;;;;69.78;31.48;;;;;;;;;;5099175;28;20030;-82
2020/12/04 09:50:48;;;;;;;38.03;19.25;;;;;;;;;;5105284;28;20024;-82
2020/12/04 09:55:32;;;;;;;16.85;8.13;;;;;;;;;;5127625;27;20601;-82
2020/12/04 10:00:17;;;;;;;7.53;3.95;;;;;;;;;;5131941;27;20342;-80
2020/12/04 10:02:43;;;;;;;5.18;2.67;;;;;;;;;;5106441;28;20032;-80
2020/12/04 10:05:08;;;;;;;13.02;6.50;;;;;;;;;;5098141;28;20032;-80
2020/12/04 10:07:34;;;;;;;19.95;9.20;;;;;;;;;;5103013;28;20028;-80
2020/12/04 10:10:00;;;;;;;8.32;4.60;;;;;;;;;;5093874;28;20083;-81
2020/12/04 10:12:26;;;;;;;4.90;2.35;;;;;;;;;;5108087;28;20024;-80
2020/12/04 10:14:52;;;;;;;5.50;2.53;;;;;;;;;;5103474;28;20017;-80
2020/12/04 10:17:18;;;;;;;5.38;2.03;;;;;;;;;;5105930;28;20024;-80
2020/12/04 10:19:44;;;;;;;4.05;2.28;;;;;;;;;;5098023;28;20027;-80
2020/12/04 10:22:10;;;;;;;5.03;2.50;;;;;;;;;;5095413;28;20028;-79
2020/12/04 10:24:36;;;;;;;4.72;2.40;;;;;;;;;;5096948;28;20080;-80
2020/12/04 10:27:02;;;;;;;4.43;1.83;;;;;;;;;;5109146;28;20051;-80
2020/12/04 10:29:28;;;;;;;3.17;1.40;;;;;;;;;;5102706;28;20031;-80
2020/12/04 10:31:54;;;;;;;3.10;1.50;;;;;;;;;;5112370;28;20093;-79
2020/12/04 10:34:20;;;;;;;2.95;1.30;;;;;;;;;;5101430;28;20036;-79
2020/12/04 10:36:46;;;;;;;3.45;1.38;;;;;;;;;;5096612;28;20820;-79
2020/12/04 10:39:13;;;;;;;2.53;1.27;;;;;;;;;;5101645;28;20528;-79
2020/12/04 10:41:40;;;;;;;2.70;1.30;;;;;;;;;;5097340;28;20019;-80
2020/12/04 10:44:07;;;;;;;2.92;1.30;;;;;;;;;;5105778;28;20069;-80
2020/12/04 10:46:33;;;;;;;2.40;1.30;;;;;;;;;;5098045;28;20027;-80
2020/12/04 10:49:00;;;;;;;2.97;1.23;;;;;;;;;;5111131;27;20239;-80
2020/12/04 10:51:26;;;;;;;2.45;1.00;;;;;;;;;;5097382;28;20029;-80
2020/12/04 10:53:52;;;;;;;2.60;1.10;;;;;;;;;;5096215;28;20024;-80
2020/12/04 10:56:21;;;;;;;2.47;1.10;;;;;;;;;;5101629;28;20021;-80
2020/12/04 10:58:48;;;;;;;2.22;1.13;;;;;;;;;;5098294;28;20036;-80
2020/12/04 11:01:20;;;;;;;2.10;1.00;;;;;;;;;;5103772;28;20052;-80
2020/12/04 11:06:21;;;;;;;2.47;1.33;;;;;;;;;;5100841;28;20063;-80
2020/12/04 11:08:48;;;;;;;2.00;0.98;;;;;;;;;;5086870;28;20028;-80
2020/12/04 11:11:15;;;;;;;2.75;1.25;;;;;;;;;;5082362;28;20085;-80
2020/12/04 11:13:41;;;;;;;2.28;1.17;;;;;;;;;;5093948;28;20016;-80
2020/12/04 11:16:07;;;;;;;2.55;1.20;;;;;;;;;;5085483;28;20450;-79
2020/12/04 11:18:33;;;;;;;3.58;1.02;;;;;;;;;;5092449;28;20579;-79
2020/12/04 11:20:59;;;;;;;2.55;1.17;;;;;;;;;;5088875;28;20501;-79
2020/12/04 11:23:25;;;;;;;2.63;1.20;;;;;;;;;;5090146;28;20060;-80
2020/12/04 11:25:51;;;;;;;2.30;0.90;;;;;;;;;;5089802;28;20024;-79
2020/12/04 11:28:17;;;;;;;2.55;1.13;;;;;;;;;;5094922;28;20028;-78
2020/12/04 11:30:43;;;;;;;4.00;1.02;;;;;;;;;;5091811;28;20388;-80
2020/12/04 11:33:12;;;;;;;2.88;1.13;;;;;;;;;;5093361;28;20024;-80
2020/12/04 11:35:38;;;;;;;5.00;1.98;;;;;;;;;;5082932;28;20073;-80
2020/12/04 11:38:04;;;;;;;2.17;1.38;;;;;;;;;;5081937;28;20024;-79
2020/12/04 11:40:30;;;;;;;2.53;1.00;;;;;;;;;;5093538;28;20020;-81
2020/12/04 11:42:56;;;;;;;4.40;1.20;;;;;;;;;;5084137;28;20436;-80
2020/12/04 11:45:22;;;;;;;2.10;0.90;;;;;;;;;;5090372;28;20028;-80
2020/12/04 11:47:49;;;;;;;2.70;1.00;;;;;;;;;;5085386;28;20095;-81
2020/12/04 11:50:16;;;;;;;4.05;1.15;;;;;;;;;;5092593;28;20107;-83
2020/12/04 11:52:43;;;;;;;2.35;1.35;;;;;;;;;;5090534;28;21562;-80
2020/12/04 11:55:09;;;;;;;4.18;1.90;;;;;;;;;;5089399;28;20024;-80
2020/12/04 11:57:35;;;;;;;3.25;1.80;;;;;;;;;;5072323;28;20039;-81
2020/12/04 12:00:01;;;;;;;3.08;1.50;;;;;;;;;;5071339;28;20040;-79
2020/12/04 12:02:28;;;;;;;2.53;1.25;;;;;;;;;;5094951;22;20076;-82
2020/12/04 12:04:54;;;;;;;2.42;1.30;;;;;;;;;;5072241;28;20070;-84
2020/12/04 12:07:20;;;;;;;4.18;1.73;;;;;;;;;;5071008;28;20017;-83
2020/12/04 12:09:49;;;;;;;3.25;2.05;;;;;;;;;;5068094;28;20074;-83
2020/12/04 12:12:16;;;;;;;2.85;1.80;;;;;;;;;;5070339;28;20028;-83
2020/12/04 12:14:44;;;;;;;2.58;1.40;;;;;;;;;;5080901;28;20111;-83
2020/12/04 12:17:10;;;;;;;2.03;1.23;;;;;;;;;;5058472;28;20056;-83
2020/12/04 12:19:36;;;;;;;4.38;2.20;;;;;;;;;;5079137;28;20037;-83
2020/12/04 12:22:02;;;;;;;3.50;1.90;;;;;;;;;;5070359;28;20033;-84
2020/12/04 12:24:28;;;;;;;3.55;2.30;;;;;;;;;;5053394;28;20031;-83
2020/12/04 12:26:54;;;;;;;4.80;2.75;;;;;;;;;;5053815;28;20025;-83
2020/12/04 12:29:20;;;;;;;3.55;2.00;;;;;;;;;;5058970;28;20083;-83
2020/12/04 12:31:46;;;;;;;2.58;1.42;;;;;;;;;;5052834;28;20036;-84
2020/12/04 12:34:12;;;;;;;2.47;1.27;;;;;;;;;;5067410;28;20035;-83
2020/12/04 12:36:38;;;;;;;2.35;1.00;;;;;;;;;;5066311;28;20012;-83
2020/12/04 12:39:04;;;;;;;2.70;1.52;;;;;;;;;;5073756;28;20119;-83
2020/12/04 12:41:30;;;;;;;3.38;2.00;;;;;;;;;;5071144;28;20024;-83
2020/12/04 12:43:56;;;;;;;3.03;1.52;;;;;;;;;;5064366;28;20024;-83
2020/12/04 12:46:22;;;;;;;4.75;3.03;;;;;;;;;;5070663;28;20377;-83
2020/12/04 12:48:48;;;;;;;5.85;1.95;;;;;;;;;;5068915;28;20024;-83
2020/12/04 12:51:14;;;;;;;6.18;2.85;;;;;;;;;;5068330;28;20542;-83
2020/12/04 12:53:40;;;;;;;6.32;2.30;;;;;;;;;;5065525;28;20012;-84
2020/12/04 12:56:06;;;;;;;2.80;1.50;;;;;;;;;;5071764;28;20020;-83
2020/12/04 12:58:32;;;;;;;4.45;2.30;;;;;;;;;;5069546;28;20411;-83
2020/12/04 13:00:58;;;;;;;4.25;2.13;;;;;;;;;;5053409;28;20450;-83
2020/12/04 13:03:25;;;;;;;2.65;1.55;;;;;;;;;;5071722;28;20388;-84
2020/12/04 13:05:51;;;;;;;9.20;6.22;;;;;;;;;;5068349;28;20043;-83
2020/12/04 13:10:35;;;;;;;4.25;2.60;;;;;;;;;;5102931;27;20404;-84
2020/12/04 13:13:02;;;;;;;4.45;3.05;;;;;;;;;;5100948;28;20488;-83
2020/12/04 13:15:28;;;;;;;6.05;2.30;;;;;;;;;;5098077;28;20039;-83
2020/12/04 13:17:54;;;;;;;3.60;2.47;;;;;;;;;;5099135;28;20023;-83
2020/12/04 13:20:20;;;;;;;6.93;3.97;;;;;;;;;;5093298;28;20040;-84
2020/12/04 13:25:31;;;;;;;3.33;1.80;;;;;;;;;;5099502;28;20047;-83
2020/12/04 13:27:57;;;;;;;3.92;2.30;;;;;;;;;;5104477;28;20091;-83
2020/12/04 13:30:24;;;;;;;4.03;1.67;;;;;;;;;;5099983;28;20135;-83
2020/12/04 13:32:49;;;;;;;3.70;1.90;;;;;;;;;;5099624;28;20030;-84
2020/12/04 13:35:17;;;;;;;4.82;1.90;;;;;;;;;;5093405;28;20104;-83
2020/12/04 13:37:43;;;;;;;4.03;2.17;;;;;;;;;;5087796;28;20640;-83
2020/12/04 13:40:09;;;;;;;2.97;1.98;;;;;;;;;;5095870;28;20496;-83
2020/12/04 13:42:35;;;;;;;3.10;1.85;;;;;;;;;;5098634;28;20032;-84
2020/12/04 13:47:20;;;;;;;2.35;1.17;;;;;;;;;;5093438;28;20396;-83
2020/12/04 13:49:46;;;;;;;5.97;2.10;;;;;;;;;;5067740;28;20039;-84
2020/12/04 13:52:12;;;;;;;2.90;1.60;;;;;;;;;;5066439;28;20476;-83
2020/12/04 13:54:38;;;;;;;3.58;1.95;;;;;;;;;;5056622;28;20496;-84
2020/12/04 13:57:04;;;;;;;2.58;1.10;;;;;;;;;;5059943;28;20025;-84
2020/12/04 13:59:30;;;;;;;3.28;1.40;;;;;;;;;;5060365;28;20067;-83
2020/12/04 14:01:56;;;;;;;2.90;1.50;;;;;;;;;;5061633;28;20027;-83
2020/12/04 14:04:22;;;;;;;2.92;1.50;;;;;;;;;;5061251;28;20074;-83
2020/12/04 14:06:49;;;;;;;2.85;1.55;;;;;;;;;;5077286;28;20480;-83
2020/12/04 14:09:15;;;;;;;2.78;1.40;;;;;;;;;;5053194;28;20103;-84
2020/12/04 14:11:41;;;;;;;4.30;1.55;;;;;;;;;;5067553;28;20076;-83
2020/12/04 14:14:07;;;;;;;3.97;2.30;;;;;;;;;;5079207;28;20013;-83
2020/12/04 14:16:33;;;;;;;2.88;1.23;;;;;;;;;;5075354;28;20083;-83
2020/12/04 14:18:59;;;;;;;3.20;1.42;;;;;;;;;;5060614;28;20028;-83
2020/12/04 14:21:25;;;;;;;16.35;9.25;;;;;;;;;;5052523;28;20039;-83
2020/12/04 14:23:51;;;;;;;16.08;10.50;;;;;;;;;;5079764;28;20029;-83
2020/12/04 14:26:21;;;;;;;7.45;5.30;;;;;;;;;;5058740;28;20025;-83
2020/12/04 14:28:47;;;;;;;7.07;5.50;;;;;;;;;;5072230;28;20020;-83
2020/12/04 14:31:13;;;;;;;6.70;5.10;;;;;;;;;;5056686;28;20098;-83
2020/12/04 14:33:39;;;;;;;5.30;3.47;;;;;;;;;;5082054;28;20024;-83
2020/12/04 14:36:05;;;;;;;3.83;2.40;;;;;;;;;;5062815;28;20036;-83
2020/12/04 14:41:15;;;;;;;3.75;2.05;;;;;;;;;;5073705;28;20028;-82
2020/12/04 14:43:42;;;;;;;4.38;2.60;;;;;;;;;;5067617;28;20020;-83
2020/12/04 14:46:09;;;;;;;3.75;2.22;;;;;;;;;;5075246;28;20028;-83
2020/12/04 14:50:54;;;;;;;5.18;2.15;;;;;;;;;;5105565;27;20404;-83
2020/12/04 14:53:20;;;;;;;3.08;1.73;;;;;;;;;;5085257;28;20055;-83
2020/12/04 14:55:46;;;;;;;7.32;1.48;;;;;;;;;;5082010;28;20040;-84
2020/12/04 14:58:11;;;;;;;3.05;1.50;;;;;;;;;;5085415;28;20063;-83
2020/12/04 15:00:37;;;;;;;3.10;1.73;;;;;;;;;;5087646;28;20052;-84
2020/12/04 15:03:03;;;;;;;4.07;1.50;;;;;;;;;;5091872;28;20047;-83
2020/12/04 15:05:29;;;;;;;2.50;1.30;;;;;;;;;;5080389;28;20017;-83
2020/12/04 15:08:29;;;;;;;6.68;2.15;;;;;;;;;;5083012;28;20025;-83
2020/12/04 15:10:58;;;;;;;2.90;1.40;;;;;;;;;;5076907;28;20408;-83
2020/12/04 15:13:24;;;;;;;2.67;1.40;;;;;;;;;;5086716;28;20044;-83
2020/12/04 15:15:51;;;;;;;4.40;1.67;;;;;;;;;;5093501;28;20028;-83
2020/12/04 15:18:17;;;;;;;2.78;1.38;;;;;;;;;;5086427;28;20028;-82
2020/12/04 15:20:44;;;;;;;2.90;1.63;;;;;;;;;;5082522;28;20381;-83
2020/12/04 15:23:10;;;;;;;5.03;2.50;;;;;;;;;;5085149;28;20055;-82
2020/12/04 15:25:36;;;;;;;3.15;1.60;;;;;;;;;;5093932;28;20111;-82
2020/12/04 15:28:02;;;;;;;2.53;1.35;;;;;;;;;;5085919;28;20028;-83
2020/12/04 15:30:29;;;;;;;3.83;1.40;;;;;;;;;;5082282;28;20062;-83
2020/12/04 15:32:55;;;;;;;3.28;1.40;;;;;;;;;;5091268;28;20031;-82
2020/12/04 15:35:21;;;;;;;2.50;1.33;;;;;;;;;;5089140;28;20031;-83
2020/12/04 15:37:47;;;;;;;2.80;1.30;;;;;;;;;;5087509;28;20028;-83
2020/12/04 15:40:13;;;;;;;6.97;1.80;;;;;;;;;;5087057;28;20056;-82
2020/12/04 15:42:39;;;;;;;2.95;1.80;;;;;;;;;;5082590;28;20153;-83
2020/12/04 15:45:06;;;;;;;3.97;2.33;;;;;;;;;;5083051;28;20020;-82
2020/12/04 15:47:32;;;;;;;2.80;1.55;;;;;;;;;;5092374;28;20029;-82
2020/12/04 15:49:58;;;;;;;4.05;2.00;;;;;;;;;;5085881;28;20033;-82
2020/12/04 15:52:25;;;;;;;2.85;1.50;;;;;;;;;;5080297;28;20037;-82
2020/12/04 15:54:51;;;;;;;2.72;1.50;;;;;;;;;;5088418;28;20024;-83
2020/12/04 15:57:17;;;;;;;3.30;1.67;;;;;;;;;;5088615;28;20030;-82
2020/12/04 15:59:43;;;;;;;3.55;1.85;;;;;;;;;;5086612;28;20062;-83
2020/12/04 16:02:10;;;;;;;2.70;1.63;;;;;;;;;;5058121;28;20033;-82
2020/12/04 16:04:36;;;;;;;4.45;1.50;;;;;;;;;;5072449;28;20036;-82
2020/12/04 16:07:04;;;;;;;2.63;1.40;;;;;;;;;;5089233;28;20035;-82
2020/12/04 16:09:29;;;;;;;2.85;1.70;;;;;;;;;;5072858;28;20515;-82
2020/12/04 16:11:55;;;;;;;4.13;1.60;;;;;;;;;;5077482;28;20024;-83
2020/12/04 16:14:22;;;;;;;2.85;1.40;;;;;;;;;;5083675;28;20074;-83
2020/12/04 16:16:49;;;;;;;3.85;1.60;;;;;;;;;;5073457;28;20023;-83
2020/12/04 16:19:15;;;;;;;2.90;1.45;;;;;;;;;;5079430;28;20119;-83
2020/12/04 16:21:46;;;;;;;4.10;1.30;;;;;;;;;;5081048;28;20104;-83
2020/12/04 16:24:12;;;;;;;6.50;3.35;;;;;;;;;;5062956;28;20020;-83
2020/12/04 16:26:38;;;;;;;7.80;4.72;;;;;;;;;;5088712;28;20032;-82
2020/12/04 16:31:22;;;;;;;4.70;2.38;;;;;;;;;;5104823;28;20347;-82
2020/12/04 16:33:50;;;;;;;5.15;2.72;;;;;;;;;;5081668;28;20024;-83
2020/12/04 16:38:34;;;;;;;2.75;1.75;;;;;;;;;;5097511;28;20349;-83
2020/12/04 16:41:03;;;;;;;4.05;1.67;;;;;;;;;;5093548;28;20033;-83
2020/12/04 16:43:29;;;;;;;3.00;1.67;;;;;;;;;;5082310;28;20115;-83
2020/12/04 16:45:55;;;;;;;2.85;1.40;;;;;;;;;;5076350;28;20104;-83
2020/12/04 16:48:21;;;;;;;2.58;1.42;;;;;;;;;;5083235;28;20023;-82
2020/12/04 16:50:47;;;;;;;2.88;1.40;;;;;;;;;;5079778;28;20021;-82
2020/12/04 16:53:13;;;;;;;4.38;1.40;;;;;;;;;;5074119;28;20029;-82
2020/12/04 16:55:39;;;;;;;2.72;1.27;;;;;;;;;;5081373;28;20021;-83
2020/12/04 16:58:05;;;;;;;3.10;1.55;;;;;;;;;;5075877;28;20017;-83
2020/12/04 17:00:31;;;;;;;3.15;1.58;;;;;;;;;;5081548;28;20020;-83
2020/12/04 17:02:57;;;;;;;2.90;1.65;;;;;;;;;;5071457;28;20014;-82
2020/12/04 17:05:23;;;;;;;11.70;5.93;;;;;;;;;;5080833;28;20778;-82
2020/12/04 17:07:49;;;;;;;5.90;3.67;;;;;;;;;;5079363;28;20039;-82
2020/12/04 17:10:15;;;;;;;4.45;2.40;;;;;;;;;;5075691;28;20028;-82
2020/12/04 17:12:41;;;;;;;4.15;2.20;;;;;;;;;;5080992;28;20051;-82
2020/12/04 17:15:07;;;;;;;4.40;2.22;;;;;;;;;;5074626;28;20032;-83
2020/12/04 17:17:34;;;;;;;3.63;1.85;;;;;;;;;;5082962;28;20024;-83
2020/12/04 17:19:59;;;;;;;5.35;1.92;;;;;;;;;;5071540;28;20027;-83
2020/12/04 17:22:25;;;;;;;4.47;1.70;;;;;;;;;;5076436;28;20469;-83
2020/12/04 17:27:10;;;;;;;2.85;1.48;;;;;;;;;;5109217;27;20355;-82
2020/12/04 17:29:37;;;;;;;3.45;1.80;;;;;;;;;;5087059;28;20033;-82
2020/12/04 17:32:03;;;;;;;5.75;1.85;;;;;;;;;;5087387;28;20027;-82
2020/12/04 17:34:29;;;;;;;3.65;2.03;;;;;;;;;;5089681;28;20023;-82
2020/12/04 17:36:55;;;;;;;4.53;2.42;;;;;;;;;;5094103;28;20016;-82
2020/12/04 17:39:21;;;;;;;4.95;2.92;;;;;;;;;;5090237;28;20020;-82
2020/12/04 17:41:50;;;;;;;11.50;5.88;;;;;;;;;;5086208;28;20099;-82
2020/12/04 17:44:16;;;;;;;10.15;5.28;;;;;;;;;;5090763;28;20541;-82
2020/12/04 17:46:47;;;;;;;5.57;2.95;;;;;;;;;;5092311;28;20055;-81
2020/12/04 17:51:31;;;;;;;5.60;2.53;;;;;;;;;;5120388;27;20400;-82
2020/12/04 17:53:57;;;;;;;4.35;2.70;;;;;;;;;;5113462;28;20027;-82
2020/12/04 17:56:28;;;;;;;5.55;2.83;;;;;;;;;;5120543;28;20020;-82
2020/12/04 17:58:54;;;;;;;5.03;2.92;;;;;;;;;;5116910;28;20475;-82
2020/12/04 18:01:20;;;;;;;6.32;4.22;;;;;;;;;;5102576;28;20058;-81
2020/12/04 18:03:46;;;;;;;7.60;3.80;;;;;;;;;;5104814;28;20055;-82
2020/12/04 18:06:12;;;;;;;7.07;3.33;;;;;;;;;;5097593;28;20106;-80
2020/12/04 18:08:38;;;;;;;4.90;2.92;;;;;;;;;;5104872;28;20561;-82
2020/12/04 18:11:04;;;;;;;4.63;2.80;;;;;;;;;;5103908;28;20032;-81
2020/12/04 18:16:08;;;;;;;5.25;3.22;;;;;;;;;;5027104;28;20057;-81
2020/12/04 18:18:34;;;;;;;13.75;8.82;;;;;;;;;;5029288;28;20437;-81
2020/12/04 18:21:00;;;;;;;14.82;9.13;;;;;;;;;;5034464;28;20477;-81
2020/12/04 18:23:26;;;;;;;15.88;8.60;;;;;;;;;;5038211;28;20029;-81
2020/12/04 18:25:52;;;;;;;10.75;7.32;;;;;;;;;;5051079;28;20025;-82
2020/12/04 18:28:18;;;;;;;10.25;6.82;;;;;;;;;;5055958;28;20063;-82
2020/12/04 18:30:44;;;;;;;8.85;5.32;;;;;;;;;;5047529;28;20033;-81
2020/12/04 18:33:10;;;;;;;7.85;5.45;;;;;;;;;;5030923;28;20017;-80
2020/12/04 18:35:36;;;;;;;9.65;5.72;;;;;;;;;;5030691;28;20013;-81
2020/12/04 18:38:02;;;;;;;6.35;4.30;;;;;;;;;;5049590;28;20128;-80
2020/12/04 18:40:28;;;;;;;9.90;5.40;;;;;;;;;;5055995;28;20111;-80
2020/12/04 18:42:54;;;;;;;10.10;6.72;;;;;;;;;;5055317;28;20529;-80
2020/12/04 18:45:20;;;;;;;19.48;12.35;;;;;;;;;;5040996;28;20024;-80
2020/12/04 18:47:46;;;;;;;22.95;14.00;;;;;;;;;;5050420;28;20672;-80
2020/12/04 18:50:12;;;;;;;26.38;14.93;;;;;;;;;;5047913;28;20025;-80
2020/12/04 18:52:38;;;;;;;21.48;13.02;;;;;;;;;;5055537;28;20457;-80
2020/12/04 18:55:04;;;;;;;16.92;11.65;;;;;;;;;;5035462;28;20033;-80
2020/12/04 18:57:30;;;;;;;19.60;11.48;;;;;;;;;;5047260;28;20032;-80
2020/12/04 18:59:56;;;;;;;13.35;8.65;;;;;;;;;;5047572;28;20029;-80
2020/12/04 19:02:22;;;;;;;12.55;8.60;;;;;;;;;;5024287;28;20033;-80
2020/12/04 19:04:48;;;;;;;13.52;7.88;;;;;;;;;;5034798;28;20026;-80
2020/12/04 19:07:14;;;;;;;10.57;7.18;;;;;;;;;;5030862;28;20065;-80
2020/12/04 19:09:41;;;;;;;10.73;6.45;;;;;;;;;;5032476;28;20111;-80
2020/12/04 19:12:07;;;;;;;8.13;5.85;;;;;;;;;;5034870;28;20434;-80
2020/12/04 19:14:33;;;;;;;7.47;5.70;;;;;;;;;;5036252;28;20033;-80
2020/12/04 19:16:59;;;;;;;8.05;5.35;;;;;;;;;;5034144;28;20109;-78
2020/12/04 19:19:25;;;;;;;8.95;5.70;;;;;;;;;;5032505;28;20052;-78
2020/12/04 19:21:52;;;;;;;9.95;6.60;;;;;;;;;;5030864;28;20069;-78
2020/12/04 19:24:18;;;;;;;9.40;6.55;;;;;;;;;;5017838;28;20022;-78
2020/12/04 19:27:02;;;;;;;8.32;5.40;;;;;;;;;;5033046;28;20428;-78
2020/12/04 19:29:28;;;;;;;7.80;5.32;;;;;;;;;;5032762;28;20033;-78
2020/12/04 19:31:54;;;;;;;8.07;5.25;;;;;;;;;;5032128;28;20036;-79
2020/12/04 19:36:38;;;;;;;10.18;6.65;;;;;;;;;;5084374;28;20354;-80
2020/12/04 19:39:05;;;;;;;10.13;6.57;;;;;;;;;;5079847;28;20024;-80
2020/12/04 19:41:31;;;;;;;9.20;5.85;;;;;;;;;;5080893;28;20036;-80
2020/12/04 19:43:57;;;;;;;10.93;7.10;;;;;;;;;;5083189;28;20082;-80
2020/12/04 19:46:27;;;;;;;12.13;7.50;;;;;;;;;;5078702;28;20492;-81
2020/12/04 19:48:53;;;;;;;10.68;7.57;;;;;;;;;;5072411;28;20097;-81
2020/12/04 19:51:20;;;;;;;16.63;8.27;;;;;;;;;;5080788;28;20092;-81
2020/12/04 19:56:05;;;;;;;18.13;11.68;;;;;;;;;;5055218;28;20355;-81
2020/12/04 19:58:31;;;;;;;22.17;12.80;;;;;;;;;;5059631;28;20031;-81
2020/12/04 20:00:58;;;;;;;20.63;13.55;;;;;;;;;;5067604;28;20021;-82
2020/12/04 20:03:24;;;;;;;20.35;13.68;;;;;;;;;;5072997;28;20013;-80
2020/12/04 20:05:51;;;;;;;22.38;15.38;;;;;;;;;;5051914;28;20142;-80
2020/12/04 20:08:17;;;;;;;25.60;17.25;;;;;;;;;;5053777;28;20033;-80
2020/12/04 20:10:44;;;;;;;20.05;14.15;;;;;;;;;;5050972;28;20032;-80
2020/12/04 20:13:13;;;;;;;17.73;12.98;;;;;;;;;;5048998;28;20460;-79
2020/12/04 20:15:39;;;;;;;19.20;13.43;;;;;;;;;;5052915;28;20054;-79
2020/12/04 20:18:05;;;;;;;18.05;12.13;;;;;;;;;;5050089;28;20028;-80
2020/12/04 20:20:31;;;;;;;15.52;9.80;;;;;;;;;;5063252;28;20026;-80
2020/12/04 20:22:59;;;;;;;13.65;8.88;;;;;;;;;;5048444;28;20057;-79
2020/12/04 20:25:25;;;;;;;13.60;8.70;;;;;;;;;;5049474;28;20115;-78
2020/12/04 20:27:51;;;;;;;10.77;7.28;;;;;;;;;;5051691;28;20078;-79
2020/12/04 20:30:17;;;;;;;9.57;6.50;;;;;;;;;;5050470;28;20029;-80
2020/12/04 20:32:44;;;;;;;10.68;6.93;;;;;;;;;;5051296;28;20017;-79
2020/12/04 20:35:10;;;;;;;10.82;6.85;;;;;;;;;;5048824;28;20033;-79
2020/12/04 20:37:35;;;;;;;9.48;6.97;;;;;;;;;;5051258;28;20036;-80
2020/12/04 20:40:01;;;;;;;10.48;7.00;;;;;;;;;;5051464;28;20104;-80
2020/12/04 20:42:27;;;;;;;11.00;8.02;;;;;;;;;;5050352;28;20060;-80
2020/12/04 20:44:54;;;;;;;12.27;7.55;;;;;;;;;;5047705;28;20025;-81
2020/12/04 20:47:20;;;;;;;15.73;8.25;;;;;;;;;;5045516;28;20049;-79
2020/12/04 20:49:46;;;;;;;12.23;7.40;;;;;;;;;;5043518;28;20086;-80
2020/12/04 20:52:12;;;;;;;10.25;6.38;;;;;;;;;;5046512;28;20029;-79
2020/12/04 20:54:38;;;;;;;11.50;7.43;;;;;;;;;;5045165;28;20163;-80
2020/12/04 20:57:04;;;;;;;10.13;6.97;;;;;;;;;;5055544;28;20083;-80
2020/12/04 20:59:30;;;;;;;10.15;6.63;;;;;;;;;;5059020;28;20039;-81
2020/12/04 21:01:56;;;;;;;10.88;7.22;;;;;;;;;;5051631;28;20020;-81
2020/12/04 21:04:22;;;;;;;10.13;6.97;;;;;;;;;;5052258;28;20106;-80
2020/12/04 21:06:49;;;;;;;11.30;7.93;;;;;;;;;;5038621;28;20137;-80
2020/12/04 21:09:16;;;;;;;13.65;7.22;;;;;;;;;;5044718;28;20041;-80
2020/12/04 21:11:41;;;;;;;9.43;7.10;;;;;;;;;;5035998;28;20096;-80
2020/12/04 21:14:07;;;;;;;11.57;7.80;;;;;;;;;;5041647;28;20355;-80
2020/12/04 21:16:33;;;;;;;12.15;7.68;;;;;;;;;;5037735;28;20029;-80
2020/12/04 21:18:59;;;;;;;11.82;8.77;;;;;;;;;;5038035;28;20021;-80
2020/12/04 21:21:25;;;;;;;13.77;9.68;;;;;;;;;;5030297;28;20465;-80
2020/12/04 21:23:51;;;;;;;12.65;9.23;;;;;;;;;;5041122;28;20403;-80